sensor_id;sensor_type;location;lat;lon;timestamp;P1;durP1;ratioP1;P2;durP2;ratioP2
20749;SDS011;10535;50.664;4.564;2022-11-24T00:01:09;12.30;;;3.00;;
20749;SDS011;10535;50.664;4.564;2022-11-24T00:03:36;11.63;;;2.33;;
20749;SDS011;10535;50.664;4.564;2022-11-24T00:06:06;10.00;;;2.73;;
20749;SDS011;10535;50.664;4.564;2022-11-24T00:08:35;7.83;;;2.70;;
20749;SDS011;10535;50.664;4.564;2022-11-24T00:11:02;12.00;;;3.87;;
20749;SDS011;10535;50.664;4.564;2022-11-24T00:13:32;9.23;;;2.13;;
20749;SDS011;10535;50.664;4.564;2022-11-24T00:16:06;8.03;;;2.03;;
20749;SDS011;10535;50.664;4.564;2022-11-24T00:18:34;8.73;;;2.67;;
20749;SDS011;10535;50.664;4.564;2022-11-24T00:20:59;5.07;;;2.53;;
20749;SDS011;10535;50.664;4.564;2022-11-24T00:23:25;15.03;;;3.47;;
20749;SDS011;10535;50.664;4.564;2022-11-24T00:25:51;8.30;;;2.53;;
20749;SDS011;10535;50.664;4.564;2022-11-24T00:28:19;10.27;;;2.60;;
20749;SDS011;10535;50.664;4.564;2022-11-24T00:30:44;7.50;;;2.53;;
20749;SDS011;10535;50.664;4.564;2022-11-24T00:33:10;13.63;;;3.83;;
20749;SDS011;10535;50.664;4.564;2022-11-24T00:35:35;19.67;;;3.37;;
20749;SDS011;10535;50.664;4.564;2022-11-24T00:38:01;11.00;;;2.97;;
20749;SDS011;10535;50.664;4.564;2022-11-24T00:40:27;4.27;;;1.93;;
20749;SDS011;10535;50.664;4.564;2022-11-24T00:42:52;8.97;;;2.47;;
20749;SDS011;10535;50.664;4.564;2022-11-24T00:45:18;19.23;;;3.00;;
20749;SDS011;10535;50.664;4.564;2022-11-24T00:47:43;11.53;;;2.47;;
20749;SDS011;10535;50.664;4.564;2022-11-24T00:50:09;4.73;;;1.70;;
20749;SDS011;10535;50.664;4.564;2022-11-24T00:52:35;11.83;;;2.10;;
20749;SDS011;10535;50.664;4.564;2022-11-24T00:55:00;11.40;;;3.00;;
20749;SDS011;10535;50.664;4.564;2022-11-24T00:57:26;21.70;;;2.53;;
20749;SDS011;10535;50.664;4.564;2022-11-24T00:59:51;11.93;;;2.60;;
20749;SDS011;10535;50.664;4.564;2022-11-24T01:02:17;17.63;;;3.20;;
20749;SDS011;10535;50.664;4.564;2022-11-24T01:04:43;9.10;;;2.50;;
20749;SDS011;10535;50.664;4.564;2022-11-24T01:07:08;12.80;;;2.87;;
20749;SDS011;10535;50.664;4.564;2022-11-24T01:09:34;17.73;;;3.03;;
20749;SDS011;10535;50.664;4.564;2022-11-24T01:11:59;24.23;;;5.20;;
20749;SDS011;10535;50.664;4.564;2022-11-24T01:14:25;11.83;;;2.50;;
20749;SDS011;10535;50.664;4.564;2022-11-24T01:16:51;14.73;;;3.90;;
20749;SDS011;10535;50.664;4.564;2022-11-24T01:19:17;10.47;;;2.77;;
20749;SDS011;10535;50.664;4.564;2022-11-24T01:21:43;12.43;;;2.73;;
20749;SDS011;10535;50.664;4.564;2022-11-24T01:24:09;9.17;;;2.43;;
20749;SDS011;10535;50.664;4.564;2022-11-24T01:26:35;6.53;;;2.20;;
20749;SDS011;10535;50.664;4.564;2022-11-24T01:29:01;10.30;;;2.70;;
20749;SDS011;10535;50.664;4.564;2022-11-24T01:31:27;7.87;;;2.23;;
20749;SDS011;10535;50.664;4.564;2022-11-24T01:33:53;7.07;;;2.30;;
20749;SDS011;10535;50.664;4.564;2022-11-24T01:36:19;15.73;;;2.83;;
20749;SDS011;10535;50.664;4.564;2022-11-24T01:38:46;19.47;;;3.67;;
20749;SDS011;10535;50.664;4.564;2022-11-24T01:41:16;12.03;;;2.90;;
20749;SDS011;10535;50.664;4.564;2022-11-24T01:43:49;12.50;;;1.93;;
20749;SDS011;10535;50.664;4.564;2022-11-24T01:49:13;11.40;;;2.47;;
20749;SDS011;10535;50.664;4.564;2022-11-24T01:51:47;10.10;;;2.63;;
20749;SDS011;10535;50.664;4.564;2022-11-24T01:54:26;11.60;;;1.83;;
20749;SDS011;10535;50.664;4.564;2022-11-24T01:56:59;10.10;;;3.70;;
20749;SDS011;10535;50.664;4.564;2022-11-24T01:59:28;12.53;;;2.43;;
20749;SDS011;10535;50.664;4.564;2022-11-24T02:01:55;11.93;;;3.23;;
20749;SDS011;10535;50.664;4.564;2022-11-24T02:04:24;10.57;;;2.50;;
20749;SDS011;10535;50.664;4.564;2022-11-24T02:06:53;16.17;;;3.43;;
20749;SDS011;10535;50.664;4.564;2022-11-24T02:09:22;16.90;;;2.77;;
20749;SDS011;10535;50.664;4.564;2022-11-24T02:11:50;13.73;;;2.53;;
20749;SDS011;10535;50.664;4.564;2022-11-24T02:14:17;8.07;;;2.03;;
20749;SDS011;10535;50.664;4.564;2022-11-24T02:16:44;14.13;;;3.37;;
20749;SDS011;10535;50.664;4.564;2022-11-24T02:19:17;12.30;;;2.80;;
20749;SDS011;10535;50.664;4.564;2022-11-24T02:21:55;17.07;;;3.33;;
20749;SDS011;10535;50.664;4.564;2022-11-24T02:24:24;15.70;;;2.70;;
20749;SDS011;10535;50.664;4.564;2022-11-24T02:26:56;8.73;;;2.43;;
20749;SDS011;10535;50.664;4.564;2022-11-24T02:29:22;13.27;;;3.00;;
20749;SDS011;10535;50.664;4.564;2022-11-24T02:31:50;11.80;;;3.67;;
20749;SDS011;10535;50.664;4.564;2022-11-24T02:34:20;11.43;;;2.87;;
20749;SDS011;10535;50.664;4.564;2022-11-24T02:36:45;13.37;;;3.03;;
20749;SDS011;10535;50.664;4.564;2022-11-24T02:39:12;11.00;;;2.87;;
20749;SDS011;10535;50.664;4.564;2022-11-24T02:41:41;10.43;;;2.27;;
20749;SDS011;10535;50.664;4.564;2022-11-24T02:44:14;13.17;;;3.10;;
20749;SDS011;10535;50.664;4.564;2022-11-24T02:46:41;13.03;;;3.50;;
20749;SDS011;10535;50.664;4.564;2022-11-24T02:49:07;21.47;;;4.30;;
20749;SDS011;10535;50.664;4.564;2022-11-24T02:51:33;11.93;;;3.63;;
20749;SDS011;10535;50.664;4.564;2022-11-24T02:53:59;14.20;;;2.47;;
20749;SDS011;10535;50.664;4.564;2022-11-24T02:56:25;14.00;;;2.43;;
20749;SDS011;10535;50.664;4.564;2022-11-24T02:58:50;21.00;;;2.63;;
20749;SDS011;10535;50.664;4.564;2022-11-24T03:01:16;12.30;;;2.17;;
20749;SDS011;10535;50.664;4.564;2022-11-24T03:03:42;13.27;;;3.37;;
20749;SDS011;10535;50.664;4.564;2022-11-24T03:06:08;10.03;;;2.13;;
20749;SDS011;10535;50.664;4.564;2022-11-24T03:08:33;12.93;;;2.67;;
20749;SDS011;10535;50.664;4.564;2022-11-24T03:11:00;15.53;;;3.27;;
20749;SDS011;10535;50.664;4.564;2022-11-24T03:13:26;17.80;;;3.67;;
20749;SDS011;10535;50.664;4.564;2022-11-24T03:15:52;14.77;;;3.40;;
20749;SDS011;10535;50.664;4.564;2022-11-24T03:18:17;18.23;;;2.63;;
20749;SDS011;10535;50.664;4.564;2022-11-24T03:20:43;7.50;;;2.37;;
20749;SDS011;10535;50.664;4.564;2022-11-24T03:23:09;16.40;;;3.60;;
20749;SDS011;10535;50.664;4.564;2022-11-24T03:25:35;10.97;;;2.37;;
20749;SDS011;10535;50.664;4.564;2022-11-24T03:28:00;13.83;;;2.93;;
20749;SDS011;10535;50.664;4.564;2022-11-24T03:30:26;5.10;;;1.77;;
20749;SDS011;10535;50.664;4.564;2022-11-24T03:32:52;8.50;;;2.13;;
20749;SDS011;10535;50.664;4.564;2022-11-24T03:35:18;8.83;;;2.03;;
20749;SDS011;10535;50.664;4.564;2022-11-24T03:37:46;11.37;;;2.60;;
20749;SDS011;10535;50.664;4.564;2022-11-24T03:40:12;16.30;;;2.60;;
20749;SDS011;10535;50.664;4.564;2022-11-24T03:42:38;11.13;;;2.43;;
20749;SDS011;10535;50.664;4.564;2022-11-24T03:45:04;13.47;;;2.93;;
20749;SDS011;10535;50.664;4.564;2022-11-24T03:47:30;5.10;;;2.07;;
20749;SDS011;10535;50.664;4.564;2022-11-24T03:49:56;10.20;;;2.27;;
20749;SDS011;10535;50.664;4.564;2022-11-24T03:52:22;7.10;;;2.07;;
20749;SDS011;10535;50.664;4.564;2022-11-24T03:54:50;1.90;;;1.17;;
20749;SDS011;10535;50.664;4.564;2022-11-24T03:57:16;3.07;;;1.10;;
20749;SDS011;10535;50.664;4.564;2022-11-24T04:02:13;8.50;;;1.63;;
20749;SDS011;10535;50.664;4.564;2022-11-24T04:04:39;1.53;;;0.73;;
20749;SDS011;10535;50.664;4.564;2022-11-24T04:07:05;2.80;;;0.90;;
20749;SDS011;10535;50.664;4.564;2022-11-24T04:09:30;3.33;;;0.93;;
20749;SDS011;10535;50.664;4.564;2022-11-24T04:11:56;3.47;;;1.03;;
20749;SDS011;10535;50.664;4.564;2022-11-24T04:14:40;3.10;;;1.20;;
20749;SDS011;10535;50.664;4.564;2022-11-24T04:17:05;1.33;;;1.03;;
20749;SDS011;10535;50.664;4.564;2022-11-24T04:19:31;0.57;;;0.57;;
20749;SDS011;10535;50.664;4.564;2022-11-24T04:21:57;3.07;;;0.57;;
20749;SDS011;10535;50.664;4.564;2022-11-24T04:24:22;0.83;;;0.43;;
20749;SDS011;10535;50.664;4.564;2022-11-24T04:26:48;2.83;;;0.83;;
20749;SDS011;10535;50.664;4.564;2022-11-24T04:29:13;2.00;;;0.80;;
20749;SDS011;10535;50.664;4.564;2022-11-24T04:31:39;2.70;;;0.90;;
20749;SDS011;10535;50.664;4.564;2022-11-24T04:34:04;3.03;;;0.80;;
20749;SDS011;10535;50.664;4.564;2022-11-24T04:36:30;2.97;;;0.60;;
20749;SDS011;10535;50.664;4.564;2022-11-24T04:38:55;4.90;;;1.03;;
20749;SDS011;10535;50.664;4.564;2022-11-24T04:41:21;0.47;;;0.47;;
20749;SDS011;10535;50.664;4.564;2022-11-24T04:43:50;3.80;;;0.70;;
20749;SDS011;10535;50.664;4.564;2022-11-24T04:46:16;4.20;;;0.97;;
20749;SDS011;10535;50.664;4.564;2022-11-24T04:48:41;3.00;;;1.27;;
20749;SDS011;10535;50.664;4.564;2022-11-24T04:51:07;2.10;;;0.70;;
20749;SDS011;10535;50.664;4.564;2022-11-24T04:53:32;5.20;;;1.13;;
20749;SDS011;10535;50.664;4.564;2022-11-24T04:55:58;1.60;;;0.70;;
20749;SDS011;10535;50.664;4.564;2022-11-24T04:58:27;2.63;;;0.80;;
20749;SDS011;10535;50.664;4.564;2022-11-24T05:00:53;2.57;;;0.70;;
20749;SDS011;10535;50.664;4.564;2022-11-24T05:03:18;1.47;;;1.03;;
20749;SDS011;10535;50.664;4.564;2022-11-24T05:05:44;2.00;;;0.70;;
20749;SDS011;10535;50.664;4.564;2022-11-24T05:08:10;1.13;;;0.60;;
20749;SDS011;10535;50.664;4.564;2022-11-24T05:10:35;2.67;;;1.07;;
20749;SDS011;10535;50.664;4.564;2022-11-24T05:13:11;3.63;;;0.97;;
20749;SDS011;10535;50.664;4.564;2022-11-24T05:15:38;1.53;;;0.90;;
20749;SDS011;10535;50.664;4.564;2022-11-24T05:18:09;5.93;;;1.80;;
20749;SDS011;10535;50.664;4.564;2022-11-24T05:20:36;2.57;;;0.60;;
20749;SDS011;10535;50.664;4.564;2022-11-24T05:23:03;2.93;;;1.23;;
20749;SDS011;10535;50.664;4.564;2022-11-24T05:25:31;1.03;;;0.90;;
20749;SDS011;10535;50.664;4.564;2022-11-24T05:28:01;2.03;;;1.07;;
20749;SDS011;10535;50.664;4.564;2022-11-24T05:30:29;4.03;;;0.83;;
20749;SDS011;10535;50.664;4.564;2022-11-24T05:32:55;2.50;;;0.90;;
20749;SDS011;10535;50.664;4.564;2022-11-24T05:35:21;1.63;;;0.93;;
20749;SDS011;10535;50.664;4.564;2022-11-24T05:37:47;3.67;;;0.80;;
20749;SDS011;10535;50.664;4.564;2022-11-24T05:40:12;0.67;;;0.67;;
20749;SDS011;10535;50.664;4.564;2022-11-24T05:42:38;2.10;;;0.97;;
20749;SDS011;10535;50.664;4.564;2022-11-24T05:45:04;12.03;;;1.77;;
20749;SDS011;10535;50.664;4.564;2022-11-24T05:47:31;2.83;;;1.00;;
20749;SDS011;10535;50.664;4.564;2022-11-24T05:49:57;3.97;;;0.97;;
20749;SDS011;10535;50.664;4.564;2022-11-24T05:52:22;6.03;;;1.13;;
20749;SDS011;10535;50.664;4.564;2022-11-24T05:54:48;3.77;;;1.20;;
20749;SDS011;10535;50.664;4.564;2022-11-24T05:57:15;9.80;;;1.60;;
20749;SDS011;10535;50.664;4.564;2022-11-24T05:59:41;4.33;;;1.20;;
20749;SDS011;10535;50.664;4.564;2022-11-24T06:02:07;5.90;;;2.00;;
20749;SDS011;10535;50.664;4.564;2022-11-24T06:04:34;4.93;;;1.67;;
20749;SDS011;10535;50.664;4.564;2022-11-24T06:07:00;9.07;;;1.60;;
20749;SDS011;10535;50.664;4.564;2022-11-24T06:09:26;5.63;;;1.57;;
20749;SDS011;10535;50.664;4.564;2022-11-24T06:11:52;3.73;;;1.50;;
20749;SDS011;10535;50.664;4.564;2022-11-24T06:14:17;6.87;;;1.70;;
20749;SDS011;10535;50.664;4.564;2022-11-24T06:16:43;10.73;;;1.87;;
20749;SDS011;10535;50.664;4.564;2022-11-24T06:19:09;3.40;;;1.50;;
20749;SDS011;10535;50.664;4.564;2022-11-24T06:21:35;6.43;;;1.77;;
20749;SDS011;10535;50.664;4.564;2022-11-24T06:24:01;5.17;;;1.73;;
20749;SDS011;10535;50.664;4.564;2022-11-24T06:26:26;9.57;;;1.73;;
20749;SDS011;10535;50.664;4.564;2022-11-24T06:28:52;6.60;;;1.33;;
20749;SDS011;10535;50.664;4.564;2022-11-24T06:31:18;2.00;;;1.63;;
20749;SDS011;10535;50.664;4.564;2022-11-24T06:33:43;2.67;;;1.17;;
20749;SDS011;10535;50.664;4.564;2022-11-24T06:36:10;9.87;;;1.50;;
20749;SDS011;10535;50.664;4.564;2022-11-24T06:38:37;3.10;;;1.37;;
20749;SDS011;10535;50.664;4.564;2022-11-24T06:41:04;3.43;;;1.33;;
20749;SDS011;10535;50.664;4.564;2022-11-24T06:43:32;2.67;;;1.30;;
20749;SDS011;10535;50.664;4.564;2022-11-24T06:45:58;3.43;;;1.70;;
20749;SDS011;10535;50.664;4.564;2022-11-24T06:48:24;6.80;;;1.70;;
20749;SDS011;10535;50.664;4.564;2022-11-24T06:50:50;5.10;;;1.03;;
20749;SDS011;10535;50.664;4.564;2022-11-24T06:53:16;12.10;;;2.00;;
20749;SDS011;10535;50.664;4.564;2022-11-24T06:55:42;1.63;;;1.23;;
20749;SDS011;10535;50.664;4.564;2022-11-24T06:58:09;3.97;;;1.10;;
20749;SDS011;10535;50.664;4.564;2022-11-24T07:00:35;10.77;;;1.67;;
20749;SDS011;10535;50.664;4.564;2022-11-24T07:03:02;3.00;;;1.13;;
20749;SDS011;10535;50.664;4.564;2022-11-24T07:05:28;11.40;;;2.60;;
20749;SDS011;10535;50.664;4.564;2022-11-24T07:07:53;4.57;;;1.23;;
20749;SDS011;10535;50.664;4.564;2022-11-24T07:10:19;7.83;;;2.03;;
20749;SDS011;10535;50.664;4.564;2022-11-24T07:12:44;8.10;;;1.93;;
20749;SDS011;10535;50.664;4.564;2022-11-24T07:15:10;3.30;;;1.40;;
20749;SDS011;10535;50.664;4.564;2022-11-24T07:17:36;2.90;;;1.50;;
20749;SDS011;10535;50.664;4.564;2022-11-24T07:20:03;4.20;;;1.10;;
20749;SDS011;10535;50.664;4.564;2022-11-24T07:22:30;2.30;;;1.30;;
20749;SDS011;10535;50.664;4.564;2022-11-24T07:24:56;4.53;;;1.93;;
20749;SDS011;10535;50.664;4.564;2022-11-24T07:27:22;4.63;;;1.20;;
20749;SDS011;10535;50.664;4.564;2022-11-24T07:29:47;3.10;;;1.07;;
20749;SDS011;10535;50.664;4.564;2022-11-24T07:32:13;12.60;;;2.40;;
20749;SDS011;10535;50.664;4.564;2022-11-24T07:34:39;5.13;;;1.93;;
20749;SDS011;10535;50.664;4.564;2022-11-24T07:37:04;3.63;;;1.60;;
20749;SDS011;10535;50.664;4.564;2022-11-24T07:39:30;2.73;;;1.50;;
20749;SDS011;10535;50.664;4.564;2022-11-24T07:41:57;8.23;;;1.40;;
20749;SDS011;10535;50.664;4.564;2022-11-24T07:44:23;6.53;;;1.20;;
20749;SDS011;10535;50.664;4.564;2022-11-24T07:46:49;10.07;;;1.73;;
20749;SDS011;10535;50.664;4.564;2022-11-24T07:49:15;8.07;;;2.53;;
20749;SDS011;10535;50.664;4.564;2022-11-24T07:51:42;7.93;;;2.10;;
20749;SDS011;10535;50.664;4.564;2022-11-24T07:54:07;3.17;;;1.20;;
20749;SDS011;10535;50.664;4.564;2022-11-24T07:56:33;4.80;;;2.03;;
20749;SDS011;10535;50.664;4.564;2022-11-24T07:58:59;7.93;;;1.57;;
20749;SDS011;10535;50.664;4.564;2022-11-24T08:01:24;6.23;;;1.83;;
20749;SDS011;10535;50.664;4.564;2022-11-24T08:03:50;12.47;;;2.00;;
20749;SDS011;10535;50.664;4.564;2022-11-24T08:06:16;6.60;;;1.93;;
20749;SDS011;10535;50.664;4.564;2022-11-24T08:08:42;8.30;;;1.80;;
20749;SDS011;10535;50.664;4.564;2022-11-24T08:11:09;12.47;;;2.33;;
20749;SDS011;10535;50.664;4.564;2022-11-24T08:13:37;10.33;;;2.27;;
20749;SDS011;10535;50.664;4.564;2022-11-24T08:16:04;5.60;;;1.77;;
20749;SDS011;10535;50.664;4.564;2022-11-24T08:18:34;11.73;;;1.60;;
20749;SDS011;10535;50.664;4.564;2022-11-24T08:21:01;7.37;;;1.67;;
20749;SDS011;10535;50.664;4.564;2022-11-24T08:23:27;9.37;;;1.50;;
20749;SDS011;10535;50.664;4.564;2022-11-24T08:25:54;3.03;;;1.40;;
20749;SDS011;10535;50.664;4.564;2022-11-24T08:28:21;4.33;;;1.30;;
20749;SDS011;10535;50.664;4.564;2022-11-24T08:30:47;4.10;;;1.23;;
20749;SDS011;10535;50.664;4.564;2022-11-24T08:33:13;3.33;;;1.30;;
20749;SDS011;10535;50.664;4.564;2022-11-24T08:35:38;7.37;;;1.30;;
20749;SDS011;10535;50.664;4.564;2022-11-24T08:38:04;4.53;;;1.37;;
20749;SDS011;10535;50.664;4.564;2022-11-24T08:40:30;5.67;;;1.47;;
20749;SDS011;10535;50.664;4.564;2022-11-24T08:42:57;17.63;;;1.90;;
20749;SDS011;10535;50.664;4.564;2022-11-24T08:45:23;5.03;;;1.50;;
20749;SDS011;10535;50.664;4.564;2022-11-24T08:47:52;5.07;;;1.57;;
20749;SDS011;10535;50.664;4.564;2022-11-24T08:50:20;4.47;;;1.50;;
20749;SDS011;10535;50.664;4.564;2022-11-24T08:52:46;6.10;;;1.40;;
20749;SDS011;10535;50.664;4.564;2022-11-24T08:55:12;8.13;;;1.50;;
20749;SDS011;10535;50.664;4.564;2022-11-24T08:57:38;5.40;;;2.20;;
20749;SDS011;10535;50.664;4.564;2022-11-24T09:00:04;4.90;;;1.73;;
20749;SDS011;10535;50.664;4.564;2022-11-24T09:02:30;9.57;;;1.77;;
20749;SDS011;10535;50.664;4.564;2022-11-24T09:04:56;5.33;;;1.47;;
20749;SDS011;10535;50.664;4.564;2022-11-24T09:07:22;5.77;;;1.47;;
20749;SDS011;10535;50.664;4.564;2022-11-24T09:09:47;6.43;;;2.10;;
20749;SDS011;10535;50.664;4.564;2022-11-24T09:12:13;6.13;;;1.63;;
20749;SDS011;10535;50.664;4.564;2022-11-24T09:14:39;8.80;;;1.77;;
20749;SDS011;10535;50.664;4.564;2022-11-24T09:17:04;7.30;;;1.77;;
20749;SDS011;10535;50.664;4.564;2022-11-24T09:19:30;9.73;;;2.27;;
20749;SDS011;10535;50.664;4.564;2022-11-24T09:21:55;5.17;;;1.37;;
20749;SDS011;10535;50.664;4.564;2022-11-24T09:24:21;3.27;;;1.40;;
20749;SDS011;10535;50.664;4.564;2022-11-24T09:26:47;8.77;;;2.50;;
20749;SDS011;10535;50.664;4.564;2022-11-24T09:29:12;5.30;;;1.50;;
20749;SDS011;10535;50.664;4.564;2022-11-24T09:31:38;5.77;;;1.40;;
20749;SDS011;10535;50.664;4.564;2022-11-24T09:34:05;4.83;;;1.73;;
20749;SDS011;10535;50.664;4.564;2022-11-24T09:36:32;3.00;;;1.30;;
20749;SDS011;10535;50.664;4.564;2022-11-24T09:38:58;3.37;;;1.20;;
20749;SDS011;10535;50.664;4.564;2022-11-24T09:52:37;5.67;;;1.37;;
20749;SDS011;10535;50.664;4.564;2022-11-24T09:55:17;4.67;;;1.20;;
20749;SDS011;10535;50.664;4.564;2022-11-24T09:57:45;3.07;;;1.13;;
20749;SDS011;10535;50.664;4.564;2022-11-24T10:00:16;5.73;;;1.83;;
20749;SDS011;10535;50.664;4.564;2022-11-24T10:02:42;8.13;;;1.70;;
20749;SDS011;10535;50.664;4.564;2022-11-24T10:05:10;1.70;;;1.10;;
20749;SDS011;10535;50.664;4.564;2022-11-24T10:07:39;6.20;;;1.80;;
20749;SDS011;10535;50.664;4.564;2022-11-24T10:26:19;2.13;;;1.10;;
20749;SDS011;10535;50.664;4.564;2022-11-24T10:28:59;5.60;;;1.83;;
20749;SDS011;10535;50.664;4.564;2022-11-24T10:31:37;9.10;;;1.67;;
20749;SDS011;10535;50.664;4.564;2022-11-24T10:34:13;5.30;;;1.30;;
20749;SDS011;10535;50.664;4.564;2022-11-24T10:39:18;3.93;;;1.30;;
20749;SDS011;10535;50.664;4.564;2022-11-24T10:44:31;5.90;;;1.80;;
20749;SDS011;10535;50.664;4.564;2022-11-24T10:46:57;5.43;;;1.43;;
20749;SDS011;10535;50.664;4.564;2022-11-24T10:49:28;7.67;;;2.13;;
20749;SDS011;10535;50.664;4.564;2022-11-24T10:52:16;6.07;;;1.40;;
20749;SDS011;10535;50.664;4.564;2022-11-24T10:54:52;4.77;;;1.70;;
20749;SDS011;10535;50.664;4.564;2022-11-24T10:57:32;6.20;;;1.67;;
20749;SDS011;10535;50.664;4.564;2022-11-24T11:00:00;7.53;;;2.00;;
20749;SDS011;10535;50.664;4.564;2022-11-24T11:02:30;8.27;;;2.00;;
20749;SDS011;10535;50.664;4.564;2022-11-24T11:07:52;7.20;;;1.50;;
20749;SDS011;10535;50.664;4.564;2022-11-24T11:10:33;12.43;;;1.50;;
20749;SDS011;10535;50.664;4.564;2022-11-24T11:12:59;5.70;;;1.50;;
20749;SDS011;10535;50.664;4.564;2022-11-24T11:15:44;17.07;;;2.13;;
20749;SDS011;10535;50.664;4.564;2022-11-24T11:18:11;6.67;;;2.43;;
20749;SDS011;10535;50.664;4.564;2022-11-24T11:20:40;5.33;;;1.53;;
20749;SDS011;10535;50.664;4.564;2022-11-24T11:23:18;6.73;;;2.53;;
20749;SDS011;10535;50.664;4.564;2022-11-24T11:25:47;16.30;;;1.90;;
20749;SDS011;10535;50.664;4.564;2022-11-24T11:28:18;3.63;;;1.10;;
20749;SDS011;10535;50.664;4.564;2022-11-24T11:30:56;8.43;;;2.07;;
20749;SDS011;10535;50.664;4.564;2022-11-24T11:33:27;10.03;;;2.37;;
20749;SDS011;10535;50.664;4.564;2022-11-24T11:35:55;9.30;;;2.33;;
20749;SDS011;10535;50.664;4.564;2022-11-24T11:38:22;13.53;;;2.30;;
20749;SDS011;10535;50.664;4.564;2022-11-24T11:40:50;8.67;;;1.87;;
20749;SDS011;10535;50.664;4.564;2022-11-24T11:43:20;8.93;;;1.80;;
20749;SDS011;10535;50.664;4.564;2022-11-24T11:45:56;8.00;;;1.97;;
20749;SDS011;10535;50.664;4.564;2022-11-24T11:56:31;4.47;;;2.30;;
20749;SDS011;10535;50.664;4.564;2022-11-24T12:04:51;6.80;;;1.70;;
20749;SDS011;10535;50.664;4.564;2022-11-24T12:10:09;4.40;;;1.70;;
20749;SDS011;10535;50.664;4.564;2022-11-24T12:16:06;5.20;;;1.37;;
20749;SDS011;10535;50.664;4.564;2022-11-24T12:18:36;7.57;;;1.80;;
20749;SDS011;10535;50.664;4.564;2022-11-24T12:24:39;8.27;;;1.30;;
20749;SDS011;10535;50.664;4.564;2022-11-24T12:27:22;16.87;;;1.83;;
20749;SDS011;10535;50.664;4.564;2022-11-24T12:30:11;5.30;;;2.10;;
20749;SDS011;10535;50.664;4.564;2022-11-24T12:35:34;6.40;;;2.43;;
20749;SDS011;10535;50.664;4.564;2022-11-24T12:43:54;12.23;;;2.07;;
20749;SDS011;10535;50.664;4.564;2022-11-24T12:46:34;2.30;;;1.20;;
20749;SDS011;10535;50.664;4.564;2022-11-24T12:51:32;11.37;;;2.77;;
20749;SDS011;10535;50.664;4.564;2022-11-24T12:54:02;6.27;;;2.47;;
20749;SDS011;10535;50.664;4.564;2022-11-24T12:56:44;10.50;;;1.80;;
20749;SDS011;10535;50.664;4.564;2022-11-24T13:08:04;6.43;;;2.53;;
20749;SDS011;10535;50.664;4.564;2022-11-24T13:10:39;4.17;;;2.03;;
20749;SDS011;10535;50.664;4.564;2022-11-24T13:13:06;6.87;;;1.97;;
20749;SDS011;10535;50.664;4.564;2022-11-24T13:21:29;5.77;;;2.23;;
20749;SDS011;10535;50.664;4.564;2022-11-24T13:24:17;13.33;;;2.80;;
20749;SDS011;10535;50.664;4.564;2022-11-24T13:26:47;13.13;;;2.90;;
20749;SDS011;10535;50.664;4.564;2022-11-24T13:39:55;7.13;;;2.10;;
20749;SDS011;10535;50.664;4.564;2022-11-24T13:42:21;7.20;;;2.10;;
20749;SDS011;10535;50.664;4.564;2022-11-24T13:44:54;5.30;;;2.10;;
20749;SDS011;10535;50.664;4.564;2022-11-24T13:49:52;4.03;;;1.70;;
20749;SDS011;10535;50.664;4.564;2022-11-24T13:57:42;5.53;;;2.10;;
20749;SDS011;10535;50.664;4.564;2022-11-24T14:00:23;11.23;;;3.27;;
20749;SDS011;10535;50.664;4.564;2022-11-24T14:02:58;13.70;;;3.23;;
20749;SDS011;10535;50.664;4.564;2022-11-24T14:05:40;9.20;;;2.57;;
20749;SDS011;10535;50.664;4.564;2022-11-24T14:08:28;10.40;;;2.67;;
20749;SDS011;10535;50.664;4.564;2022-11-24T14:10:57;4.50;;;2.20;;
20749;SDS011;10535;50.664;4.564;2022-11-24T14:16:12;9.07;;;2.30;;
20749;SDS011;10535;50.664;4.564;2022-11-24T14:18:39;12.43;;;2.87;;
20749;SDS011;10535;50.664;4.564;2022-11-24T14:23:45;8.17;;;2.03;;
20749;SDS011;10535;50.664;4.564;2022-11-24T14:26:44;7.43;;;2.00;;
20749;SDS011;10535;50.664;4.564;2022-11-24T14:29:12;9.77;;;2.63;;
20749;SDS011;10535;50.664;4.564;2022-11-24T14:31:40;8.13;;;2.07;;
20749;SDS011;10535;50.664;4.564;2022-11-24T14:34:17;7.30;;;2.27;;
20749;SDS011;10535;50.664;4.564;2022-11-24T14:36:45;9.10;;;2.23;;
20749;SDS011;10535;50.664;4.564;2022-11-24T14:39:15;11.50;;;3.17;;
20749;SDS011;10535;50.664;4.564;2022-11-24T14:41:48;14.57;;;3.10;;
20749;SDS011;10535;50.664;4.564;2022-11-24T14:44:29;5.70;;;1.77;;
20749;SDS011;10535;50.664;4.564;2022-11-24T14:47:02;7.40;;;2.40;;
20749;SDS011;10535;50.664;4.564;2022-11-24T14:49:31;9.00;;;2.37;;
20749;SDS011;10535;50.664;4.564;2022-11-24T14:52:02;6.83;;;2.23;;
20749;SDS011;10535;50.664;4.564;2022-11-24T14:54:32;10.23;;;2.23;;
20749;SDS011;10535;50.664;4.564;2022-11-24T14:57:02;8.07;;;2.50;;
20749;SDS011;10535;50.664;4.564;2022-11-24T14:59:30;7.60;;;2.50;;
20749;SDS011;10535;50.664;4.564;2022-11-24T15:02:02;6.10;;;1.57;;
20749;SDS011;10535;50.664;4.564;2022-11-24T15:04:57;5.93;;;1.83;;
20749;SDS011;10535;50.664;4.564;2022-11-24T15:07:26;13.60;;;2.30;;
20749;SDS011;10535;50.664;4.564;2022-11-24T15:09:59;7.50;;;2.23;;
20749;SDS011;10535;50.664;4.564;2022-11-24T15:12:35;4.67;;;1.70;;
20749;SDS011;10535;50.664;4.564;2022-11-24T15:17:44;10.83;;;1.93;;
20749;SDS011;10535;50.664;4.564;2022-11-24T15:20:24;14.47;;;2.67;;
20749;SDS011;10535;50.664;4.564;2022-11-24T15:25:56;6.57;;;1.77;;
20749;SDS011;10535;50.664;4.564;2022-11-24T15:28:44;11.40;;;2.63;;
20749;SDS011;10535;50.664;4.564;2022-11-24T15:31:11;10.80;;;2.37;;
20749;SDS011;10535;50.664;4.564;2022-11-24T15:33:37;8.73;;;2.33;;
20749;SDS011;10535;50.664;4.564;2022-11-24T15:36:04;12.27;;;2.03;;
20749;SDS011;10535;50.664;4.564;2022-11-24T15:38:30;9.40;;;2.00;;
20749;SDS011;10535;50.664;4.564;2022-11-24T15:40:57;10.67;;;1.80;;
20749;SDS011;10535;50.664;4.564;2022-11-24T15:43:28;6.43;;;1.60;;
20749;SDS011;10535;50.664;4.564;2022-11-24T15:45:59;6.77;;;1.83;;
20749;SDS011;10535;50.664;4.564;2022-11-24T15:48:26;5.50;;;1.77;;
20749;SDS011;10535;50.664;4.564;2022-11-24T15:50:51;9.83;;;2.67;;
20749;SDS011;10535;50.664;4.564;2022-11-24T15:53:22;6.93;;;1.73;;
20749;SDS011;10535;50.664;4.564;2022-11-24T15:56:09;5.43;;;1.93;;
20749;SDS011;10535;50.664;4.564;2022-11-24T15:58:39;9.03;;;2.00;;
20749;SDS011;10535;50.664;4.564;2022-11-24T16:01:04;5.43;;;1.90;;
20749;SDS011;10535;50.664;4.564;2022-11-24T16:03:30;7.90;;;2.43;;
20749;SDS011;10535;50.664;4.564;2022-11-24T16:05:56;9.23;;;2.20;;
20749;SDS011;10535;50.664;4.564;2022-11-24T16:08:24;3.20;;;1.60;;
20749;SDS011;10535;50.664;4.564;2022-11-24T16:10:50;17.10;;;3.20;;
20749;SDS011;10535;50.664;4.564;2022-11-24T16:13:15;14.63;;;2.40;;
20749;SDS011;10535;50.664;4.564;2022-11-24T16:15:41;5.40;;;1.60;;
20749;SDS011;10535;50.664;4.564;2022-11-24T16:18:06;5.07;;;1.93;;
20749;SDS011;10535;50.664;4.564;2022-11-24T16:20:32;11.23;;;2.13;;
20749;SDS011;10535;50.664;4.564;2022-11-24T16:23:00;10.27;;;2.87;;
20749;SDS011;10535;50.664;4.564;2022-11-24T16:25:52;8.17;;;1.73;;
20749;SDS011;10535;50.664;4.564;2022-11-24T16:28:24;3.57;;;1.63;;
20749;SDS011;10535;50.664;4.564;2022-11-24T16:33:46;9.37;;;2.57;;
20749;SDS011;10535;50.664;4.564;2022-11-24T16:38:58;6.73;;;2.40;;
20749;SDS011;10535;50.664;4.564;2022-11-24T16:49:29;8.23;;;1.90;;
20749;SDS011;10535;50.664;4.564;2022-11-24T16:54:34;14.33;;;2.90;;
20749;SDS011;10535;50.664;4.564;2022-11-24T16:57:09;8.23;;;2.50;;
20749;SDS011;10535;50.664;4.564;2022-11-24T16:59:38;12.77;;;2.97;;
20749;SDS011;10535;50.664;4.564;2022-11-24T17:02:04;9.10;;;2.90;;
20749;SDS011;10535;50.664;4.564;2022-11-24T17:04:31;7.70;;;2.23;;
20749;SDS011;10535;50.664;4.564;2022-11-24T17:06:56;10.80;;;2.77;;